Time;durP1;ratioP1;P1;durP2;ratioP2;P2;SDS_P1;SDS_P2;PMS_P1;PMS_P2;Temp;Humidity;BMP_temperature;BMP_pressure;BME280_temperature;BME280_humidity;BME280_pressure;Samples;Min_cycle;Max_cycle;Signal;HPM_P1;HPM_P2
2023/05/09 00:02:06;;;;;;;19.23;13.13;;;;;;;14.23;66.56;100175.88;10356857;28;20057;-62
2023/05/09 00:07:09;;;;;;;21.08;14.85;;;;;;;14.17;66.72;100183.38;10376494;28;20054;-62
2023/05/09 00:12:11;;;;;;;23.00;15.02;;;;;;;14.17;66.80;100181.59;10372206;28;20050;-62
2023/05/09 00:17:14;;;;;;;22.05;16.15;;;;;;;14.11;66.90;100179.38;10391535;28;20046;-62
2023/05/09 00:22:18;;;;;;;16.65;13.93;;;;;;;14.14;66.77;100175.72;10388826;28;20398;-62
2023/05/09 00:27:19;;;;;;;260.70;23.55;;;;;;;14.06;66.88;100173.63;10366177;28;20073;-62
2023/05/09 00:32:21;;;;;;;76.00;17.08;;;;;;;13.93;66.98;100161.41;10376326;28;20490;-62
2023/05/09 00:37:23;;;;;;;15.27;12.68;;;;;;;13.83;66.74;100160.38;10365244;28;20148;-62
2023/05/09 00:42:25;;;;;;;14.18;12.77;;;;;;;13.69;66.75;100150.84;10373211;28;20030;-62
2023/05/09 00:47:28;;;;;;;14.80;11.57;;;;;;;13.65;67.01;100154.63;10365342;28;20115;-62
2023/05/09 00:52:32;;;;;;;18.52;14.05;;;;;;;13.67;67.02;100150.94;10365500;28;20663;-61
2023/05/09 00:57:34;;;;;;;69.50;16.23;;;;;;;13.63;67.24;100136.34;10363325;28;20125;-62
2023/05/09 01:02:36;;;;;;;26.27;13.23;;;;;;;13.66;67.25;100124.75;10370376;28;20046;-62
2023/05/09 01:08:09;;;;;;;94.13;17.75;;;;;;;13.58;67.55;100130.53;10361255;28;20486;-62
2023/05/09 01:13:11;;;;;;;77.30;15.45;;;;;;;13.61;67.17;100125.09;10394669;28;20482;-62
2023/05/09 01:18:42;;;;;;;24.55;15.00;;;;;;;13.55;67.40;100109.75;10362916;28;20156;-61
2023/05/09 01:23:43;;;;;;;13.50;10.52;;;;;;;13.60;67.25;100109.41;10363786;28;20439;-62
2023/05/09 01:29:10;;;;;;;27.05;15.27;;;;;;;13.46;67.61;100096.38;10359951;28;20038;-62
2023/05/09 01:34:15;;;;;;;18.58;13.25;;;;;;;13.58;67.31;100104.25;10357419;28;20042;-62
2023/05/09 01:39:18;;;;;;;69.45;15.20;;;;;;;13.60;67.19;100101.53;10388260;28;20128;-62
2023/05/09 01:44:22;;;;;;;30.25;13.20;;;;;;;13.54;67.11;100094.91;10377915;28;20034;-62
2023/05/09 01:49:27;;;;;;;218.98;19.27;;;;;;;13.48;67.54;100089.22;10386554;28;20498;-62
2023/05/09 01:54:31;;;;;;;115.38;19.65;;;;;;;13.45;67.58;100090.31;10392899;28;20069;-62
2023/05/09 01:59:34;;;;;;;75.07;13.27;;;;;;;13.39;67.58;100093.28;10389066;28;20034;-62
2023/05/09 02:04:36;;;;;;;15.82;10.18;;;;;;;13.37;67.76;100107.50;10383641;28;20084;-62
2023/05/09 02:09:38;;;;;;;11.40;10.20;;;;;;;13.40;67.66;100094.16;10381893;28;20128;-61
2023/05/09 02:14:40;;;;;;;44.55;14.55;;;;;;;13.52;67.36;100102.06;10358363;28;20077;-62
2023/05/09 02:19:42;;;;;;;11.77;10.18;;;;;;;13.56;67.19;100084.28;10395797;28;20084;-62
2023/05/09 02:24:44;;;;;;;12.15;8.93;;;;;;;13.59;67.20;100087.56;10364855;28;20073;-62
2023/05/09 02:29:50;;;;;;;15.75;9.85;;;;;;;13.74;67.00;100086.47;10399517;28;20131;-62
2023/05/09 02:34:54;;;;;;;53.80;14.27;;;;;;;13.72;67.14;100082.25;10354562;28;20149;-62
2023/05/09 02:39:57;;;;;;;15.30;11.07;;;;;;;13.70;66.92;100071.88;10370625;28;20061;-62
2023/05/09 02:45:01;;;;;;;11.65;9.70;;;;;;;13.55;67.25;100074.75;10356203;28;20042;-62
2023/05/09 02:50:04;;;;;;;14.55;11.57;;;;;;;13.62;67.37;100063.69;10355924;28;20052;-62
2023/05/09 02:55:08;;;;;;;13.27;11.45;;;;;;;13.64;67.13;100069.66;10364726;28;20127;-61
2023/05/09 03:00:13;;;;;;;13.45;10.60;;;;;;;13.76;67.13;100068.81;10411019;28;20072;-62
2023/05/09 03:05:15;;;;;;;13.25;11.10;;;;;;;13.76;67.02;100058.28;10377561;28;20046;-62
2023/05/09 03:10:17;;;;;;;16.98;12.90;;;;;;;13.62;67.00;100057.56;10365909;28;20061;-62
2023/05/09 03:15:20;;;;;;;13.88;9.95;;;;;;;13.68;67.24;100057.16;10372098;28;20120;-62
2023/05/09 03:20:22;;;;;;;14.50;11.10;;;;;;;13.78;66.92;100038.00;10365715;28;20100;-62
2023/05/09 03:25:25;;;;;;;13.98;11.68;;;;;;;13.82;66.85;100043.88;10397792;28;20034;-62
2023/05/09 03:30:27;;;;;;;13.68;11.43;;;;;;;13.76;67.29;100044.28;10399756;28;20068;-62
2023/05/09 03:35:30;;;;;;;11.73;10.07;;;;;;;13.84;66.91;100030.63;10372615;28;20479;-61
2023/05/09 03:40:33;;;;;;;21.02;11.90;;;;;;;13.78;66.81;100027.47;10347126;28;20034;-62
2023/05/09 03:45:40;;;;;;;16.27;12.15;;;;;;;13.82;66.86;100025.47;10360284;28;20049;-62
2023/05/09 03:50:44;;;;;;;25.58;14.80;;;;;;;13.61;67.30;100016.50;10366059;28;20136;-61
2023/05/09 03:55:48;;;;;;;16.02;10.57;;;;;;;13.71;67.36;100022.78;10394879;28;20069;-62
2023/05/09 04:00:50;;;;;;;14.50;10.85;;;;;;;13.82;66.90;100019.38;10379385;28;20502;-62
2023/05/09 04:05:56;;;;;;;15.05;8.90;;;;;;;13.93;66.53;100022.91;10371780;28;20045;-62
2023/05/09 04:11:06;;;;;;;11.80;8.65;;;;;;;13.82;66.72;100017.56;10371888;28;20042;-62
2023/05/09 04:16:10;;;;;;;13.80;10.55;;;;;;;13.80;66.59;100014.22;10351365;28;20046;-62
2023/05/09 04:21:12;;;;;;;10.27;8.80;;;;;;;13.82;67.01;100017.56;10392008;28;20061;-62
2023/05/09 04:26:17;;;;;;;13.93;11.75;;;;;;;13.82;66.86;100016.75;10374354;28;20061;-62
2023/05/09 04:31:22;;;;;;;14.60;11.48;;;;;;;13.81;67.00;100010.66;10369984;28;20068;-62
2023/05/09 04:36:26;;;;;;;12.45;9.50;;;;;;;13.88;66.93;100011.88;10374800;28;20049;-62
2023/05/09 04:41:31;;;;;;;14.65;10.85;;;;;;;13.99;66.86;100004.06;10384434;28;20103;-62
2023/05/09 04:46:33;;;;;;;20.60;15.23;;;;;;;14.13;66.86;99998.63;10371881;28;20038;-62
2023/05/09 04:51:36;;;;;;;19.13;11.15;;;;;;;14.35;66.59;99990.84;10388295;28;20045;-62
2023/05/09 04:56:38;;;;;;;21.45;15.90;;;;;;;14.64;65.98;99977.31;10387418;28;20041;-62
2023/05/09 05:01:40;;;;;;;14.13;11.65;;;;;;;14.68;66.03;99981.41;10373637;28;20141;-62
2023/05/09 05:06:42;;;;;;;15.35;10.10;;;;;;;14.78;65.87;99977.94;10394197;28;20533;-62
2023/05/09 05:11:44;;;;;;;18.80;13.07;;;;;;;14.86;65.76;99974.75;10363479;28;20057;-62
2023/05/09 05:17:00;;;;;;;19.42;14.00;;;;;;;15.11;65.15;99963.97;10362769;28;20038;-62
2023/05/09 05:22:02;;;;;;;19.38;12.07;;;;;;;15.31;65.21;99964.09;10394915;28;20406;-62
2023/05/09 05:27:05;;;;;;;18.52;12.05;;;;;;;15.22;64.82;99962.22;10410098;28;20056;-62
2023/05/09 05:32:09;;;;;;;18.08;13.93;;;;;;;15.15;65.24;99962.78;10377965;28;20490;-62
2023/05/09 05:37:11;;;;;;;16.42;13.13;;;;;;;15.23;65.34;99963.03;10358483;28;20054;-63
2023/05/09 05:42:15;;;;;;;15.98;12.27;;;;;;;15.50;65.12;99970.59;10378293;28;20049;-62
2023/05/09 05:47:17;;;;;;;14.25;10.55;;;;;;;15.58;64.65;99962.91;10402934;28;20037;-62
2023/05/09 05:52:20;;;;;;;20.40;13.82;;;;;;;15.71;64.34;99950.44;10367175;28;20581;-62
2023/05/09 05:57:23;;;;;;;19.00;11.20;;;;;;;15.97;63.92;99957.06;10372695;28;20042;-63
2023/05/09 06:02:26;;;;;;;17.30;11.82;;;;;;;16.02;64.08;99952.22;10370228;28;20044;-62
2023/05/09 06:07:28;;;;;;;16.35;11.30;;;;;;;16.01;63.84;99945.31;10381326;28;20061;-62
2023/05/09 06:12:30;;;;;;;12.85;10.73;;;;;;;15.91;63.77;99945.22;10365825;28;20536;-62
2023/05/09 06:17:33;;;;;;;13.18;11.65;;;;;;;15.90;64.00;99938.25;10346020;28;20533;-62
2023/05/09 06:22:35;;;;;;;21.17;13.32;;;;;;;16.13;64.15;99928.47;10395080;28;20064;-62
2023/05/09 06:27:37;;;;;;;17.80;14.10;;;;;;;16.31;63.37;99913.72;10370199;28;20046;-62
2023/05/09 06:32:40;;;;;;;21.23;14.18;;;;;;;16.42;63.50;99924.25;10357321;28;20053;-62
2023/05/09 06:37:41;;;;;;;14.98;12.77;;;;;;;16.37;63.30;99926.41;10358824;28;20046;-62
2023/05/09 06:42:44;;;;;;;21.70;12.25;;;;;;;16.37;63.57;99915.84;10366826;28;20088;-62
2023/05/09 06:47:46;;;;;;;20.45;14.70;;;;;;;16.64;63.18;99908.28;10355209;28;20046;-62
2023/05/09 06:52:48;;;;;;;17.23;14.95;;;;;;;16.96;62.45;99895.78;10352239;28;20046;-62
2023/05/09 06:57:49;;;;;;;17.15;14.60;;;;;;;17.36;61.95;99879.97;10356906;28;20471;-62
2023/05/09 07:02:52;;;;;;;22.20;16.75;;;;;;;17.55;60.39;99885.28;10354262;28;20042;-62
2023/05/09 07:07:54;;;;;;;19.92;15.60;;;;;;;18.02;59.36;99882.78;10357502;28;20482;-62
2023/05/09 07:12:56;;;;;;;16.98;15.05;;;;;;;18.61;58.26;99865.75;10357777;28;20071;-62
2023/05/09 07:17:57;;;;;;;18.48;14.20;;;;;;;19.02;57.66;99853.06;10373320;28;20046;-65
2023/05/09 07:23:02;;;;;;;19.67;15.23;;;;;;;18.78;57.71;99847.41;10394702;28;20161;-64
2023/05/09 07:28:05;;;;;;;17.00;15.18;;;;;;;18.67;57.61;99844.97;10355206;28;20042;-64
2023/05/09 07:33:07;;;;;;;21.98;15.52;;;;;;;19.18;56.80;99842.63;10392874;28;20449;-64
2023/05/09 07:38:09;;;;;;;17.55;15.75;;;;;;;18.98;56.74;99831.28;10366511;28;20104;-64
2023/05/09 07:43:11;;;;;;;19.65;14.98;;;;;;;19.24;56.86;99829.63;10368513;28;20038;-64
2023/05/09 07:48:13;;;;;;;16.55;14.23;;;;;;;19.46;55.82;99813.28;10396984;28;20055;-64
2023/05/09 07:53:15;;;;;;;18.80;16.33;;;;;;;19.29;56.04;99808.81;10365577;28;20040;-64
2023/05/09 07:58:17;;;;;;;18.88;14.70;;;;;;;19.17;57.33;99795.91;10357676;28;20029;-63
2023/05/09 08:03:19;;;;;;;18.98;15.55;;;;;;;19.68;56.07;99795.25;10370457;28;20064;-63
2023/05/09 08:08:22;;;;;;;23.77;20.77;;;;;;;19.56;56.16;99784.06;10359970;28;20123;-63
2023/05/09 08:13:24;;;;;;;27.77;21.88;;;;;;;19.86;55.22;99778.34;10358490;28;20085;-64
2023/05/09 08:18:26;;;;;;;27.27;21.88;;;;;;;20.10;55.19;99761.75;10359486;28;20046;-64
2023/05/09 08:23:29;;;;;;;22.48;20.05;;;;;;;20.14;54.38;99763.13;10359437;28;20545;-64
2023/05/09 08:28:31;;;;;;;26.65;20.52;;;;;;;20.86;53.81;99755.53;10362792;28;20125;-64
2023/05/09 08:33:32;;;;;;;23.50;19.98;;;;;;;21.20;52.79;99744.81;10358907;28;20810;-63
2023/05/09 08:38:35;;;;;;;21.85;18.20;;;;;;;21.22;51.73;99739.31;10359961;28;20156;-64
2023/05/09 08:43:39;;;;;;;23.63;19.60;;;;;;;21.21;51.60;99741.16;10370064;28;20128;-64
2023/05/09 08:48:43;;;;;;;23.20;19.65;;;;;;;20.57;52.38;99739.09;10373821;28;20489;-63
2023/05/09 08:53:45;;;;;;;21.58;19.27;;;;;;;20.33;53.18;99725.72;10368183;28;20149;-63
2023/05/09 08:58:47;;;;;;;23.30;19.45;;;;;;;20.39;53.34;99725.09;10366617;28;20088;-63
2023/05/09 09:03:50;;;;;;;23.25;19.05;;;;;;;20.52;53.23;99722.00;10367034;28;20054;-63
2023/05/09 09:08:55;;;;;;;21.67;19.00;;;;;;;21.16;51.57;99718.69;10384591;28;20042;-63
2023/05/09 09:14:04;;;;;;;21.02;18.77;;;;;;;21.66;49.62;99712.25;10375028;28;20065;-64
2023/05/09 09:19:11;;;;;;;20.65;18.45;;;;;;;21.58;49.79;99701.63;10367972;28;20371;-64
2023/05/09 09:24:21;;;;;;;17.73;15.82;;;;;;;21.52;49.52;99688.16;10380107;28;20046;-64
2023/05/09 09:29:27;;;;;;;18.05;12.10;;;;;;;21.95;49.15;99681.59;10358728;28;20049;-64
2023/05/09 09:34:29;;;;;;;17.95;12.90;;;;;;;22.17;48.97;99675.59;10367657;28;20097;-64
2023/05/09 09:39:31;;;;;;;15.10;12.10;;;;;;;22.34;48.53;99671.84;10365053;28;20061;-64
2023/05/09 09:44:34;;;;;;;28.67;18.35;;;;;;;22.23;47.98;99675.72;10364447;28;20084;-64
2023/05/09 09:49:36;;;;;;;34.65;19.42;;;;;;;22.10;48.55;99658.63;10364801;28;20080;-64
2023/05/09 09:54:37;;;;;;;22.23;16.65;;;;;;;22.12;48.34;99654.81;10396025;28;20066;-64
2023/05/09 09:59:39;;;;;;;25.85;17.33;;;;;;;21.83;49.35;99642.03;10364396;28;20146;-64
2023/05/09 10:04:42;;;;;;;18.70;16.73;;;;;;;21.45;49.69;99649.91;10364409;28;20041;-64
2023/05/09 10:09:45;;;;;;;22.35;17.45;;;;;;;21.15;49.92;99645.25;10362199;28;20459;-64
2023/05/09 10:14:47;;;;;;;20.40;16.40;;;;;;;20.88;50.90;99647.22;10363072;28;20080;-64
2023/05/09 10:19:50;;;;;;;20.65;15.57;;;;;;;20.90;51.35;99633.75;10364188;28;20085;-64
2023/05/09 10:25:05;;;;;;;18.85;15.98;;;;;;;20.62;51.08;99633.19;10363967;28;20421;-63
2023/05/09 10:30:12;;;;;;;23.77;17.48;;;;;;;20.15;51.91;99632.03;10395015;28;20117;-64
2023/05/09 10:35:16;;;;;;;19.05;17.05;;;;;;;20.12;52.34;99627.03;10365012;28;20050;-64
2023/05/09 10:40:18;;;;;;;20.98;18.10;;;;;;;20.48;52.27;99617.84;10369138;28;20431;-63
2023/05/09 10:45:21;;;;;;;22.77;19.33;;;;;;;20.62;51.66;99621.75;10362735;28;20097;-63
2023/05/09 10:50:23;;;;;;;27.88;20.65;;;;;;;20.46;51.94;99619.84;10363957;28;20121;-63
2023/05/09 10:55:46;;;;;;;27.90;21.33;;;;;;;20.43;52.67;99619.34;10363518;28;20127;-63
2023/05/09 11:00:50;;;;;;;23.13;18.70;;;;;;;20.33;52.37;99614.16;10358017;28;20077;-63
2023/05/09 11:05:54;;;;;;;25.98;21.50;;;;;;;20.27;52.89;99607.66;10363445;28;20069;-63
2023/05/09 11:11:04;;;;;;;26.67;20.15;;;;;;;20.54;52.74;99593.28;10363316;28;20049;-63
2023/05/09 11:16:11;;;;;;;25.73;21.60;;;;;;;20.54;52.35;99592.47;10371009;28;20038;-62
2023/05/09 11:21:13;;;;;;;35.00;24.00;;;;;;;20.66;52.66;99588.53;10357562;28;20104;-63
2023/05/09 11:26:16;;;;;;;31.70;23.90;;;;;;;20.41;52.57;99579.66;10395796;28;20466;-63
2023/05/09 11:31:17;;;;;;;23.17;20.38;;;;;;;21.17;51.44;99563.47;10364369;28;20038;-62
2023/05/09 11:36:26;;;;;;;35.10;24.42;;;;;;;21.68;50.72;99550.56;10380031;28;20172;-62
2023/05/09 11:41:29;;;;;;;30.40;22.25;;;;;;;21.83;50.60;99538.22;10362024;28;20553;-63
2023/05/09 11:46:31;;;;;;;30.33;23.20;;;;;;;21.94;50.57;99522.84;10360745;28;20041;-62
2023/05/09 11:51:37;;;;;;;32.47;21.58;;;;;;;21.81;50.16;99528.72;10363771;28;20446;-62
2023/05/09 11:56:40;;;;;;;26.80;18.77;;;;;;;21.88;50.60;99503.09;10360200;28;20041;-62
2023/05/09 12:01:42;;;;;;;24.95;19.92;;;;;;;21.98;50.13;99497.53;10359227;28;20042;-62
2023/05/09 12:06:50;;;;;;;21.67;17.92;;;;;;;21.83;50.09;99498.28;10361512;28;20038;-62
2023/05/09 12:11:52;;;;;;;34.05;20.15;;;;;;;22.09;50.15;99498.00;10376101;28;20041;-63
2023/05/09 12:16:54;;;;;;;23.10;18.48;;;;;;;21.81;50.16;99484.31;10370007;28;20125;-62
2023/05/09 12:21:59;;;;;;;22.23;18.30;;;;;;;22.22;49.99;99474.28;10369544;28;20483;-62
2023/05/09 12:27:01;;;;;;;21.33;18.35;;;;;;;21.88;50.73;99460.50;10368084;28;20607;-62
2023/05/09 12:32:03;;;;;;;25.52;20.17;;;;;;;21.63;50.46;99458.94;10368288;28;20042;-62
2023/05/09 12:37:17;;;;;;;24.25;20.02;;;;;;;21.48;50.99;99442.03;10367158;28;20132;-63
2023/05/09 12:42:19;;;;;;;26.75;19.17;;;;;;;21.11;51.47;99442.63;10366725;28;20132;-62
2023/05/09 12:47:21;;;;;;;23.40;18.90;;;;;;;20.61;52.33;99442.88;10370249;28;20205;-63
2023/05/09 12:52:23;;;;;;;22.90;17.05;;;;;;;20.40;53.04;99429.25;10365162;28;20088;-63
2023/05/09 12:57:26;;;;;;;19.00;15.57;;;;;;;20.36;53.25;99433.22;10368523;28;20060;-62
2023/05/09 13:02:37;;;;;;;19.17;16.52;;;;;;;20.04;54.58;99428.72;10379718;28;20049;-63
2023/05/09 13:07:43;;;;;;;21.00;17.25;;;;;;;19.96;55.75;99427.88;10365828;28;20046;-63
2023/05/09 13:12:47;;;;;;;19.70;16.92;;;;;;;19.69;55.91;99420.97;10368210;28;20417;-63
2023/05/09 13:17:50;;;;;;;26.10;18.95;;;;;;;19.40;56.69;99413.41;10398993;28;20134;-63
2023/05/09 13:22:53;;;;;;;22.00;18.67;;;;;;;19.08;56.92;99413.28;10364654;28;20538;-63
2023/05/09 13:27:54;;;;;;;26.05;20.05;;;;;;;18.72;58.66;99410.88;10365247;28;20444;-63
2023/05/09 13:32:57;;;;;;;31.85;25.33;;;;;;;18.13;60.65;99399.16;10350873;28;20046;-63
2023/05/09 13:38:04;;;;;;;29.63;24.65;;;;;;;18.00;61.62;99400.50;10349971;28;20111;-63
2023/05/09 13:43:07;;;;;;;24.08;21.35;;;;;;;18.06;61.85;99387.50;10355695;28;20578;-63
2023/05/09 13:48:10;;;;;;;25.95;22.67;;;;;;;18.58;62.17;99383.16;10345579;28;20116;-63
2023/05/09 13:53:12;;;;;;;27.40;20.45;;;;;;;18.94;60.31;99373.25;10356123;28;20058;-63
2023/05/09 13:58:14;;;;;;;22.85;19.08;;;;;;;19.03;59.89;99365.22;10365197;28;20065;-62
2023/05/09 14:03:16;;;;;;;20.05;17.95;;;;;;;19.01;60.13;99359.19;10357480;28;20069;-63
2023/05/09 14:08:17;;;;;;;20.98;17.70;;;;;;;19.21;60.53;99354.53;10359053;28;20054;-63
2023/05/09 14:13:19;;;;;;;20.95;17.30;;;;;;;19.30;59.81;99351.75;10377502;28;20037;-63
2023/05/09 14:18:21;;;;;;;19.55;16.52;;;;;;;19.33;59.94;99337.34;10374513;28;20132;-63
2023/05/09 14:23:23;;;;;;;20.58;18.25;;;;;;;19.48;59.61;99330.44;10381627;28;20052;-63
2023/05/09 14:28:25;;;;;;;23.83;18.08;;;;;;;19.40;60.21;99325.91;10396737;28;20478;-63
2023/05/09 14:33:28;;;;;;;22.27;19.88;;;;;;;19.32;59.99;99317.94;10392566;28;20046;-64
2023/05/09 14:38:31;;;;;;;25.67;22.88;;;;;;;19.23;61.28;99313.63;10356413;28;20077;-64
2023/05/09 14:43:33;;;;;;;26.30;23.45;;;;;;;19.31;60.78;99305.69;10360303;28;20084;-63
2023/05/09 14:48:35;;;;;;;25.27;22.10;;;;;;;19.52;60.92;99299.09;10360491;28;20048;-63
2023/05/09 14:53:40;;;;;;;21.98;19.48;;;;;;;19.72;60.81;99290.66;10355503;28;20044;-63
2023/05/09 14:58:42;;;;;;;22.35;18.55;;;;;;;19.98;59.89;99285.22;10364053;28;20076;-63
2023/05/09 15:03:46;;;;;;;19.63;17.23;;;;;;;20.06;59.30;99282.56;10359292;28;20523;-63
2023/05/09 15:08:48;;;;;;;24.90;18.83;;;;;;;19.85;59.96;99266.28;10363729;28;20033;-64
2023/05/09 15:13:52;;;;;;;22.20;19.85;;;;;;;19.68;60.31;99259.31;10359881;28;20133;-64
2023/05/09 15:18:54;;;;;;;28.58;23.23;;;;;;;19.33;62.07;99250.66;10359957;28;20046;-63
2023/05/09 15:23:57;;;;;;;32.17;27.50;;;;;;;19.00;63.20;99246.25;10358761;28;20049;-63
2023/05/09 15:28:59;;;;;;;32.22;24.70;;;;;;;18.70;63.75;99244.16;10369122;28;20469;-63
2023/05/09 15:34:00;;;;;;;34.53;28.67;;;;;;;18.50;64.40;99237.47;10353266;28;20062;-64
2023/05/09 15:39:03;;;;;;;29.90;24.88;;;;;;;18.55;63.86;99229.84;10349816;28;20141;-64
2023/05/09 15:44:06;;;;;;;29.92;26.27;;;;;;;18.56;64.26;99226.22;10360729;28;20119;-62
2023/05/09 15:49:07;;;;;;;38.15;30.73;;;;;;;18.69;65.34;99221.31;10350322;28;20041;-62
2023/05/09 15:54:09;;;;;;;36.35;29.35;;;;;;;18.69;64.96;99217.84;10367335;28;20401;-62
2023/05/09 15:59:11;;;;;;;28.95;25.77;;;;;;;18.50;64.55;99210.97;10357681;28;20085;-62
2023/05/09 16:04:13;;;;;;;36.78;29.98;;;;;;;18.47;65.20;99206.81;10346786;28;20096;-61
2023/05/09 16:09:15;;;;;;;47.70;33.78;;;;;;;18.51;65.60;99196.75;10391469;28;20124;-62
2023/05/09 16:14:17;;;;;;;34.88;26.80;;;;;;;18.43;65.59;99191.41;10400562;28;20480;-62
2023/05/09 16:19:19;;;;;;;34.33;25.85;;;;;;;18.41;65.89;99186.28;10373499;28;20065;-62
2023/05/09 16:24:21;;;;;;;31.65;25.38;;;;;;;18.46;65.15;99180.53;10349166;28;20362;-62
2023/05/09 16:29:23;;;;;;;32.55;26.95;;;;;;;18.51;65.61;99188.78;10359382;28;20144;-62
2023/05/09 16:34:25;;;;;;;32.40;27.88;;;;;;;18.42;66.10;99182.63;10353154;28;20096;-62
2023/05/09 16:39:27;;;;;;;35.30;27.23;;;;;;;18.59;66.21;99179.06;10361488;28;20283;-62
2023/05/09 16:44:29;;;;;;;31.85;25.75;;;;;;;18.64;66.03;99173.28;10355131;28;20045;-63
2023/05/09 16:49:31;;;;;;;35.78;28.60;;;;;;;18.70;66.02;99172.66;10340502;28;20039;-62
2023/05/09 16:54:33;;;;;;;41.15;31.95;;;;;;;18.54;66.21;99168.09;10376055;28;20192;-62
2023/05/09 16:59:36;;;;;;;33.42;26.80;;;;;;;18.59;66.36;99168.47;10366263;28;20046;-63
2023/05/09 17:04:38;;;;;;;29.35;23.77;;;;;;;18.46;66.03;99161.97;10393892;28;20045;-62
2023/05/09 17:09:40;;;;;;;29.65;24.33;;;;;;;18.41;65.77;99157.16;10366696;28;20411;-62
2023/05/09 17:14:43;;;;;;;25.15;22.42;;;;;;;18.18;66.01;99157.88;10395092;28;20460;-63
2023/05/09 17:19:46;;;;;;;24.73;21.20;;;;;;;18.14;66.26;99156.50;10359300;28;20137;-62
2023/05/09 17:24:48;;;;;;;20.35;17.83;;;;;;;18.24;65.73;99158.06;10392323;28;20129;-62
2023/05/09 17:29:49;;;;;;;26.05;21.73;;;;;;;18.24;66.15;99160.72;10373583;28;20465;-62
2023/05/09 17:34:52;;;;;;;23.27;19.58;;;;;;;17.86;66.35;99171.72;10393476;28;20774;-63
2023/05/09 17:39:54;;;;;;;14.32;10.65;;;;;;;17.53;65.67;99162.75;10368791;28;20052;-64
2023/05/09 17:44:56;;;;;;;13.15;9.50;;;;;;;17.41;65.52;99153.41;10367330;28;20617;-64
2023/05/09 17:49:58;;;;;;;13.20;10.55;;;;;;;17.45;66.21;99148.63;10369652;28;20064;-63
2023/05/09 17:55:00;;;;;;;12.95;10.10;;;;;;;17.40;66.63;99140.34;10383634;28;20077;-63
2023/05/09 18:00:07;;;;;;;13.63;11.02;;;;;;;17.42;66.68;99141.03;10393538;28;20108;-63
2023/05/09 18:05:15;;;;;;;14.77;11.13;;;;;;;17.45;66.86;99132.75;10362646;28;20144;-64
2023/05/09 18:10:18;;;;;;;25.63;16.95;;;;;;;17.41;66.85;99126.97;10366662;28;20136;-64
2023/05/09 18:15:20;;;;;;;23.65;14.70;;;;;;;17.43;67.62;99134.75;10399285;28;20135;-64
2023/05/09 18:20:22;;;;;;;25.85;17.13;;;;;;;17.38;67.93;99137.03;10362552;28;20041;-63
2023/05/09 18:25:24;;;;;;;8.63;7.00;;;;;;;17.27;66.89;99137.22;10379235;28;20397;-61
2023/05/09 18:30:26;;;;;;;7.35;5.50;;;;;;;17.12;66.69;99141.41;10362692;28;20465;-61
2023/05/09 18:35:28;;;;;;;7.07;4.40;;;;;;;16.83;66.45;99142.44;10365850;28;20038;-61
2023/05/09 18:40:31;;;;;;;5.45;3.60;;;;;;;16.67;66.52;99134.34;10364106;28;20046;-60
2023/05/09 18:45:33;;;;;;;6.35;3.40;;;;;;;16.60;66.44;99141.22;10365322;28;20050;-61
2023/05/09 18:50:35;;;;;;;6.75;3.97;;;;;;;16.62;66.38;99144.56;10356579;28;20041;-61
2023/05/09 18:55:37;;;;;;;8.43;5.00;;;;;;;16.70;66.71;99143.78;10379396;28;20137;-61
2023/05/09 19:00:39;;;;;;;6.85;3.85;;;;;;;16.68;66.50;99151.88;10386718;28;20037;-61
2023/05/09 19:05:41;;;;;;;8.70;4.72;;;;;;;16.70;66.75;99152.56;10356198;28;20046;-61
2023/05/09 19:10:43;;;;;;;9.02;4.40;;;;;;;16.35;66.46;99154.25;10353915;28;20073;-61
2023/05/09 19:15:46;;;;;;;8.82;5.60;;;;;;;16.14;67.07;99151.88;10362255;28;20106;-61
2023/05/09 19:20:48;;;;;;;10.27;6.22;;;;;;;16.14;67.50;99157.94;10419235;28;20034;-61
2023/05/09 19:25:52;;;;;;;11.38;6.78;;;;;;;16.22;67.81;99165.16;10398086;28;20133;-60
2023/05/09 19:30:55;;;;;;;9.45;5.13;;;;;;;16.27;67.24;99160.25;10396247;28;20133;-61
2023/05/09 19:35:57;;;;;;;14.70;7.18;;;;;;;16.32;67.60;99163.31;10394767;28;20111;-60
2023/05/09 19:40:59;;;;;;;10.73;6.75;;;;;;;16.33;67.38;99162.31;10397358;28;20037;-61
2023/05/09 19:46:01;;;;;;;8.48;5.82;;;;;;;16.24;67.77;99156.09;10405150;28;20061;-61
2023/05/09 19:51:03;;;;;;;11.43;6.10;;;;;;;16.13;67.63;99152.81;10412954;28;20049;-61
2023/05/09 19:56:06;;;;;;;9.13;5.95;;;;;;;16.12;68.17;99152.00;10420844;28;20055;-61
2023/05/09 20:01:08;;;;;;;11.48;8.07;;;;;;;16.28;67.92;99150.53;10390568;28;20111;-61
2023/05/09 20:06:14;;;;;;;14.38;10.63;;;;;;;16.30;67.80;99138.88;10395957;28;20063;-61
2023/05/09 20:11:15;;;;;;;20.70;11.93;;;;;;;16.33;68.22;99141.19;10398786;28;20051;-61
2023/05/09 20:16:19;;;;;;;31.40;17.58;;;;;;;16.35;68.18;99139.25;10399892;28;20144;-61
2023/05/09 20:21:21;;;;;;;215.23;24.65;;;;;;;16.10;68.04;99135.47;10398769;28;20042;-61
2023/05/09 20:26:24;;;;;;;13.07;7.45;;;;;;;15.89;68.88;99129.63;10386463;28;20124;-61
2023/05/09 20:31:30;;;;;;;12.18;8.55;;;;;;;16.07;69.04;99130.50;10385686;28;20484;-61
2023/05/09 20:36:32;;;;;;;9.32;5.25;;;;;;;16.02;68.75;99131.91;10385865;28;20505;-61
2023/05/09 20:41:34;;;;;;;16.50;7.38;;;;;;;15.96;68.71;99121.94;10436955;28;20088;-61
2023/05/09 20:46:35;;;;;;;20.63;12.15;;;;;;;15.92;68.87;99117.91;10407570;28;20071;-61
2023/05/09 20:51:37;;;;;;;14.00;7.88;;;;;;;15.98;68.64;99118.19;10416084;28;20047;-61
2023/05/09 20:56:39;;;;;;;12.15;9.73;;;;;;;15.91;68.06;99117.13;10444855;28;20053;-61
2023/05/09 21:01:42;;;;;;;10.82;7.70;;;;;;;15.86;68.76;99108.78;10413839;28;20466;-61
2023/05/09 21:06:44;;;;;;;7.97;5.53;;;;;;;15.92;68.56;99107.38;10408380;28;20556;-61
2023/05/09 21:11:46;;;;;;;10.48;7.20;;;;;;;15.92;68.60;99108.22;10423158;28;20131;-61
2023/05/09 21:16:49;;;;;;;10.02;6.30;;;;;;;16.01;68.65;99106.50;10436347;28;20055;-60
2023/05/09 21:21:51;;;;;;;10.00;5.50;;;;;;;16.08;68.48;99105.78;10407656;28;20046;-60
2023/05/09 21:26:53;;;;;;;15.48;7.78;;;;;;;16.07;68.37;99106.78;10427278;28;20070;-61
2023/05/09 21:31:55;;;;;;;11.25;6.07;;;;;;;16.00;68.27;99095.13;10413069;28;20124;-60
2023/05/09 21:36:57;;;;;;;10.98;5.93;;;;;;;15.90;68.87;99101.41;10412233;28;20463;-61
2023/05/09 21:41:59;;;;;;;7.97;3.88;;;;;;;15.83;68.78;99101.19;10416900;28;20123;-61
2023/05/09 21:47:00;;;;;;;5.53;3.20;;;;;;;15.75;68.15;99103.72;10449789;28;20056;-61
2023/05/09 21:52:03;;;;;;;3.70;2.40;;;;;;;15.63;68.63;99104.88;10413449;28;20045;-61
2023/05/09 21:57:05;;;;;;;4.90;2.60;;;;;;;15.43;68.77;99100.56;10414341;28;20402;-62
2023/05/09 22:02:07;;;;;;;3.30;2.20;;;;;;;15.33;68.91;99102.38;10411017;28;20053;-61
2023/05/09 22:07:08;;;;;;;6.03;1.98;;;;;;;15.20;68.87;99109.78;10448567;28;20040;-61
2023/05/09 22:12:11;;;;;;;4.95;1.92;;;;;;;14.99;69.05;99106.44;10408654;28;20128;-61
2023/05/09 22:17:13;;;;;;;6.75;2.08;;;;;;;14.83;69.08;99117.53;10435293;28;20053;-61
2023/05/09 22:22:14;;;;;;;2.13;1.50;;;;;;;14.73;69.52;99111.44;10410598;28;20084;-61
2023/05/09 22:27:16;;;;;;;6.15;1.48;;;;;;;14.64;69.48;99114.88;10407117;28;20053;-61
2023/05/09 22:32:18;;;;;;;3.17;1.75;;;;;;;14.51;69.80;99111.69;10405258;28;20128;-61
2023/05/09 22:37:20;;;;;;;4.75;1.60;;;;;;;14.56;69.52;99123.47;10406078;28;20084;-61
2023/05/09 22:42:22;;;;;;;2.80;1.20;;;;;;;14.38;69.56;99122.44;10447914;28;20041;-61
2023/05/09 22:47:23;;;;;;;5.00;1.33;;;;;;;14.29;69.99;99120.59;10445890;28;20074;-61
2023/05/09 22:52:25;;;;;;;4.75;1.15;;;;;;;14.28;70.03;99120.75;10403637;28;20128;-62
2023/05/09 22:57:27;;;;;;;3.22;1.30;;;;;;;14.19;69.50;99124.16;10387562;28;20077;-61